KFEW/FEW METAR and TAF weather

Enter ICAO airport designator
Station Type Date Time Source
KFEW METAR 2021/04/14 19:58 UTC NOAA

KFEW 141958Z 13009KT 10SM OVC012 M04/M06 A3016 RMK AO2A SLP268 T10381062 $


Station Type Date Time Source
KFEW Decoded METAR 2021/04/14 19:58 UTC NOAA

Station name not available
Apr 14, 2021 - 03:58 PM EDT / 2021.04.14 1958 UTC
Wind: from the SE (130 degrees) at 10 MPH (9 KT):0
Visibility: 10 mile(s):0
Sky conditions: overcast
Temperature: 25.2 F (-3.8 C)
Windchill: 15 F (-9 C):1
Dew Point: 20.8 F (-6.2 C)
Relative Humidity: 83%
Pressure (altimeter): 30.16 in. Hg (1021 hPa)
ob: KFEW 141958Z 13009KT 10SM OVC012 M04/M06 A3016 RMK AO2A SLP268 T10381062
cycle: 20

Station Type Date Time Source
KFEW TAF UTC NOAA

Error!

Example: see airport list